NCAR-RAP Real-Time Weather Data

Output produced by METARs form (23 August 2019  04:33 UTC)
found at http://weather.rap.ucar.edu/surface/
 
KIAD 230352Z 19005KT 10SM FEW060 SCT110 BKN180 BKN250 24/20 A2995 RMK AO2 SLP138 T02390200 $
KIAD 230252Z 00000KT 10SM SCT050 BKN110 BKN210 25/19 A2995 RMK AO2 SLP137 60000 T02500194 51018 $
KIAD 230152Z 00000KT 10SM SCT075 SCT200 26/19 A2994 RMK AO2 TSE22 SLP134 TS MOV E T02610194 $
KIAD 230122Z VRB03KT 10SM SCT055 BKN080 BKN200 27/20 A2992 RMK AO2 TSE22 TS MOV E T02670200 $
KIAD 230052Z 00000KT 10SM TS FEW038CB SCT055 BKN090 BKN200 27/20 A2991 RMK AO2 RAB02E47 SLP125 FRQ LTGICCG NE TS NE MOV E P0000 T02720200 $
KIAD 222352Z 21010KT 10SM TS FEW035CB SCT055 BKN120 BKN200 30/21 A2989 RMK AO2 SLP118 OCNL LTGIC NW-NE TS NW-NE MOV E T03000211 10339 20294 53005 $
KIAD 222345Z 20009KT 10SM TS FEW035CB SCT055 BKN120 BKN200 30/22 A2989 RMK AO2 OCNL LTGIC NW-NE TS NW-NE MOV E T03000217 $
KIAD 222252Z 17006KT 10SM FEW050CB SCT120 BKN200 31/21 A2987 RMK AO2 SLP111 CB W AND N MOV E T03060211 $
KIAD 222152Z COR 16009KT 10SM FEW050 BKN120 BKN200 32/21 A2987 RMK AO2 SLP112 T03170211 $
KIAD 222052Z 17004KT 10SM SCT050 BKN150 BKN250 33/20 A2988 RMK AO2 SLP114 T03280200 56021 $
KIAD 221952Z 20006KT 10SM SCT055 BKN120 BKN250 33/21 A2989 RMK AO2 SLP119 T03280206 $
KIAD 221852Z VRB04KT 10SM FEW050 SCT120 BKN250 32/20 A2991 RMK AO2 SLP126 T03220200
KIAD 221752Z VRB04KT 10SM FEW050 SCT130 BKN250 33/19 A2994 RMK AO2 SLP135 T03280194 10328 20244 58014
KIAD 221652Z 32007KT 10SM FEW050 SCT090 BKN250 32/19 A2996 RMK AO2 SLP142 T03170189
KIAD 221552Z 28007KT 10SM FEW050 BKN250 31/19 A2997 RMK AO2 SLP146 T03060194
KIAD 221452Z VRB06KT 10SM FEW050 SCT170 BKN250 30/19 A2998 RMK AO2 SLP149 T03000189 52006
KIAD 221352Z 30008KT 10SM FEW150 FEW250 28/19 A2998 RMK AO2 SLP147 T02830194
KIAD 221252Z 00000KT 10SM FEW150 FEW250 26/20 A2997 RMK AO2 SLP146 T02610200
KIAD 221152Z 00000KT 10SM FEW110 BKN250 24/20 A2996 RMK AO2 SLP144 T02440200 10250 20206 51017
KIAD 221052Z 00000KT 10SM FEW090 SCT250 21/19 A2995 RMK AO2 SLP139 T02110194
KIAD 220952Z 17003KT 10SM FEW070 SCT250 22/19 A2993 RMK AO2 SLP132 T02220194
KIAD 220852Z 00000KT 10SM SCT250 22/20 A2991 RMK AO2 SLP126 T02170200 55009
KIAD 220819Z 00000KT 10SM SCT250 22/21 A2991 RMK AO2 T02220206
KIAD 220752Z 00000KT 10SM CLR 22/21 A2991 RMK AO2 SLP124 T02170206
KIAD 220652Z 00000KT 10SM BKN250 23/21 A2992 RMK AO2 SLP126 T02280211
KIAD 220552Z 00000KT 10SM BKN065 BKN250 23/22 A2994 RMK AO2 SLP134 T02330217 10267 20228 51008
KIAD 220452Z 00000KT 10SM SCT070 SCT140 BKN250 24/21 A2994 RMK AO2 SLP134 T02390211 403330206
KIAD 220352Z 29004KT 10SM FEW040 SCT070 SCT140 BKN250 25/22 A2993 RMK AO2 SLP131 T02500217
KIAD 220252Z 22003KT 10SM BKN090 BKN250 24/22 A2991 RMK AO2 SLP126 T02440222 51010
KIAD 220152Z 15004KT 10SM FEW050 SCT100 SCT200 26/23 A2991 RMK AO2 SLP126 LTG DSNT S T02560228
KIAD 220052Z 00000KT 10SM FEW060 SCT100 SCT200 26/22 A2990 RMK AO2 SLP122 T02610222
KIAD 212352Z 15004KT 10SM FEW050CB SCT100 BKN200 27/22 A2988 RMK AO2 SLP117 CB N MOV E T02670217 10333 20267 53004
KIAD 212252Z 08005KT 10SM FEW050CB SCT090 BKN100 29/22 A2987 RMK AO2 SLP113 CB N MOV E T02890222
KIAD 212152Z 05006KT 10SM FEW019 SCT038CB BKN090 BKN200 29/22 A2988 RMK AO2 TSB12E35 SLP114 TS MOV E CB ALQDS MOV E T02890217
KIAD 212135Z 01010G14KT 10SM FEW019 SCT038CB BKN090 BKN200 29/21 A2988 RMK AO2 TSB12E35 TS MOV E CB ALQDS MOV E T02940211
KIAD 212118Z VRB03KT 10SM TS FEW009 SCT038CB BKN090 BKN200 33/20 A2987 RMK AO2 TSB12 OCNL LTGIC N-NE TS N-NE MOV E T03280200
KIAD 212052Z 21008KT 10SM FEW050CB BKN100 BKN200 33/21 A2987 RMK AO2 SLP112 CB NW-NE MOV E T03280206 58014
KIAD 211952Z 19009KT 10SM SCT050CB BKN090 BKN200 33/21 A2988 RMK AO2 SLP116 CB NW MOV E T03280206
KIAD 211852Z 25005KT 10SM BKN045CB BKN060 32/21 A2990 RMK AO2 SLP122 CB OHD MOV S T03170206
KIAD 211845Z 21005KT 10SM BKN045CB BKN060 32/20 A2991 RMK AO2 CB OHD MOV S T03170200
KIAD 211752Z 18007KT 150V220 10SM SCT038TCU BKN090 BKN250 32/22 A2991 RMK AO2 SLP126 TCU OHD T03220217 10322 20217 58018
KIAD 211736Z 20008G14KT 10SM SCT038TCU BKN090 BKN250 32/22 A2992 RMK AO2 TCU OHD T03220217
KIAD 211652Z 14007KT 10SM SCT038 SCT070 BKN250 31/22 A2993 RMK AO2 SLP132 T03110222
KIAD 211552Z 18005KT 10SM FEW040 FEW140 SCT250 30/22 A2996 RMK AO2 SLP143 T03000217
KIAD 211452Z 18004KT 10SM FEW110 SCT250 28/22 A2997 RMK AO2 SLP145 T02780217 55006
KIAD 211352Z 21006KT 10SM SCT120 BKN250 25/21 A2997 RMK AO2 SLP145 T02500211
KIAD 211252Z VRB04KT 10SM FEW009 SCT100 BKN150 BKN240 24/21 A2998 RMK AO2 SLP150 T02390211
KIAD 211152Z 23003KT 10SM FEW005 SCT100 BKN160 BKN250 22/20 A2999 RMK AO2 SLP151 70148 T02170200 10217 20206 53000
KIAD 211141Z 21005KT 10SM FEW005 SCT100 BKN160 BKN250 22/20 A2999 RMK AO2 T02170200
KIAD 211052Z 18005KT 10SM FEW100 SCT160 BKN250 21/19 A2999 RMK AO2 SLP151 T02110194
KIAD 210952Z 17005KT 10SM FEW160 BKN250 21/19 A2998 RMK AO2 SLP148 T02060194
KIAD 210852Z 00000KT 10SM BKN240 21/19 A2999 RMK AO2 SLP151 T02110194 56014
KIAD 210752Z 17004KT 10SM FEW160 BKN250 21/19 A3000 RMK AO2 SLP153 T02110194
KIAD 210652Z 00000KT 10SM BKN160 OVC250 22/19 A3001 RMK AO2 SLP158 T02170194
KIAD 210552Z 16005KT 10SM BKN250 21/19 A3003 RMK AO2 SLP164 60000 T02110194 10233 20206 50002
KIAD 210452Z 15004KT 10SM FEW130 BKN250 22/20 A3005 RMK AO2 SLP171 T02170200 403330211
KIAD 210352Z 17006KT 10SM FEW140 BKN250 21/20 A3005 RMK AO2 SLP171 T02110200
KIAD 210252Z 00000KT 10SM FEW060 SCT140 SCT250 21/20 A3002 RMK AO2 SLP163 60000 T02110200 58013
KIAD 210152Z 00000KT 10SM FEW110 BKN140 21/20 A3004 RMK AO2 SLP169 T02110200
KIAD 210052Z 00000KT 10SM FEW075 SCT110 BKN140 22/21 A3006 RMK AO2 RAE2356 TSE2356 SLP176 P0000 T02220206
KIAD 202359Z 15003KT 10SM SCT075TCU BKN110 23/22 A3007 RMK AO2 RAE56 TSE56 TCU N-NE P0000 T02330217
KIAD 202352Z 11005KT 10SM -TSRA SCT060CB BKN120 23/22 A3006 RMK AO2 SLP177 OCNL LTGICCCCG NE TS NE MOV E P0047 60148 T02280217 10333 20222 56008
KIAD 202326Z 11008KT 5SM -TSRA BR SCT039 BKN060CB OVC100 23/21 A3005 RMK AO2 OCNL LTGICCCCG E TS E MOV E P0047 T02330211
KIAD 202311Z 13008KT 1 1/4SM R01R/5500VP6000FT +TSRA BR FEW021 BKN034 OVC060CB 23/21 A3007 RMK AO2 FRQ LTGICCCCG NW TS NW MOV E P0035 T02280206
KIAD 202307Z VRB05KT 2SM -TSRA FEW021 BKN034 OVC060CB 23/21 A3008 RMK AO2 FRQ LTGICCCCG NW TS NW MOV E P0030 T02330206
KIAD 202300Z 11004G16KT 1 1/2SM +TSRA SCT021 BKN034 OVC060CB 23/20 A3008 RMK AO2 FRQ LTGICCCCG NW TS NW MOV E P0026 T02330200
KIAD 202252Z 02010G22KT 3/4SM R01R/P6000FT +TSRA FEW030 BKN060CB BKN100 25/20 A3008 RMK AO2 SLP182 FRQ LTGICCCCG NW TS NW MOV E P0005 T02500200
KIAD 202248Z 33009G22KT 230V010 1 1/2SM +TSRA FEW030 BKN060CB BKN100 26/20 A3007 RMK AO2 FRQ LTGICCCCG NW TS NW MOV E P0000
KIAD 202152Z 08006KT 10SM -TSRA BKN060CB BKN070 BKN100 23/20 A3001 RMK AO2 PK WND 12029/2104 WSHFT 2056 PRESFR SLP160 OCNL LTGICCCCG NE-SE TS NE-SE MOV E P0091 T02330200
KIAD 202120Z 12014G23KT 10SM -TSRA SCT018 BKN055CB BKN070 23/20 A3005 RMK AO2 PK WND 12029/2104 WSHFT 2056 CONS LTGICCCCG E TS E MOV E P0090 T02280200
KIAD 202115Z 09016G23KT 4SM R01R/3000VP6000FT -TSRA BKN013 OVC050CB 23/19 A3005 RMK AO2 PK WND 12029/2104 WSHFT 2056 CONS LTGICCCCG E TS E MOV E P0090 T02280189
KIAD 202113Z 10017G29KT 2SM R01R/2000VP6000FT -TSRA BKN013 OVC050CB 23/19 A3004 RMK AO2 PK WND 12029/2104 WSHFT 2056 CONS LTGICCCCG OHD TS OHD MOV E P0090 T02280189
KIAD 202111Z 10017G29KT 1 1/4SM R01R/1800VP6000FT +TSRA BKN013 OVC050CB 23/19 A3004 RMK AO2 PK WND 12029/2104 WSHFT 2056 CONS LTGICCCCG OHD TS OHD MOV E P0090 T02280194
KIAD 202106Z 12019G29KT 1/2SM R01R/1400V3000FT +TSRA BKN013 OVC050CB 23/19 A3005 RMK AO2 PK WND 12029/2104 CONS LTGICCCCG OHD TS OHD MOV E P0081 T02280194
KIAD 202056Z 10015G28KT 1/2SM R01R/1800V6000FT +TSRA FG FEW022 OVC050CB 24/22 A3007 RMK AO2 P0007 T02390217
KIAD 202052Z 19018G28KT 1SM R01R/3000VP6000FT +TSRA BKN055CB BKN065 BKN250 26/22 A3009 RMK AO2 PK WND 19028/2051 RAB48 TSB26 PRESRR SLP185 CONS LTGICCCCG OHD TS OHD MOV E P0005 60005 T02560217 53009
KIAD 202027Z 14006KT 10SM TS BKN055CB BKN065 BKN250 32/21 A3003 RMK AO2 TSB26 OCNL LTGICCG S TS S MOV E T03170211
KIAD 201952Z 08004KT 10SM SCT060TCU BKN070 BKN250 33/21 A3002 RMK AO2 SLP162 TCU S MOV E T03330211
KIAD 201852Z 11007KT 10SM FEW060TCU SCT080 BKN250 33/21 A3003 RMK AO2 SLP167 TCU E AND NW MOV E T03280211
KIAD 201752Z 11004KT 10SM SCT050TCU SCT070 BKN250 32/22 A3006 RMK AO2 SLP175 TCU OHD T03220217 10333 20239 58015
KIAD 201652Z 17005KT 10SM SCT035 BKN250 32/22 A3007 RMK AO2 SLP180 T03220217